createdAt,value
2022-12-16T00:00:06.418Z,66.87
2022-12-16T00:02:33.312Z,67.38
2022-12-16T00:05:00.144Z,66.72
2022-12-16T00:07:30.015Z,66.19
2022-12-16T00:09:56.656Z,66.48
2022-12-16T00:12:23.373Z,66.67
2022-12-16T00:14:50.051Z,66.68
2022-12-16T00:17:17.108Z,66.44
2022-12-16T00:19:43.795Z,66.75
2022-12-16T00:22:10.409Z,67.37
2022-12-16T00:24:37.274Z,67.09
2022-12-16T00:27:04.124Z,67.27
2022-12-16T00:29:30.868Z,67.44
2022-12-16T00:31:57.572Z,67.27
2022-12-16T00:34:24.240Z,67.01
2022-12-16T00:36:50.869Z,66.74
2022-12-16T00:39:17.609Z,66.06
2022-12-16T00:41:44.222Z,65.63
2022-12-16T00:44:10.920Z,65.81
2022-12-16T00:46:37.556Z,66.29
2022-12-16T00:49:04.277Z,66.08
2022-12-16T00:51:30.899Z,66.39
2022-12-16T00:53:57.504Z,66.63
2022-12-16T00:56:30.394Z,66.90
2022-12-16T00:58:57.002Z,67.02
2022-12-16T01:01:23.744Z,67.04
2022-12-16T01:03:50.546Z,67.57
2022-12-16T01:06:18.339Z,67.29
2022-12-16T01:08:51.145Z,67.43
2022-12-16T01:11:19.945Z,67.72
2022-12-16T01:13:50.379Z,68.17
2022-12-16T01:16:19.241Z,68.01
2022-12-16T01:18:45.966Z,67.87
2022-12-16T01:21:14.411Z,67.52
2022-12-16T01:23:41.220Z,66.80
2022-12-16T01:26:07.834Z,66.39
2022-12-16T01:28:34.848Z,66.54
2022-12-16T01:31:02.034Z,67.42
2022-12-16T01:33:30.403Z,66.93
2022-12-16T01:36:02.100Z,67.08
2022-12-16T01:38:29.227Z,66.86
2022-12-16T01:40:55.851Z,66.46
2022-12-16T01:43:43.057Z,66.62
2022-12-16T01:46:17.094Z,66.99
2022-12-16T01:48:47.467Z,66.86
2022-12-16T01:51:21.767Z,66.92
2022-12-16T01:53:49.526Z,66.66
2022-12-16T01:56:18.527Z,66.19
2022-12-16T01:58:45.969Z,66.66
2022-12-16T02:01:14.370Z,66.88
2022-12-16T02:03:42.326Z,66.30
2022-12-16T02:06:09.288Z,66.11
2022-12-16T02:08:35.947Z,66.10
2022-12-16T02:11:39.720Z,66.73
2022-12-16T02:14:17.656Z,67.06
2022-12-16T02:17:10.290Z,66.83
2022-12-16T02:20:07.372Z,66.56
2022-12-16T02:23:02.188Z,66.83
2022-12-16T02:25:58.168Z,66.45
2022-12-16T02:28:40.519Z,67.33
2022-12-16T02:31:19.384Z,66.90
2022-12-16T02:34:09.134Z,65.58
2022-12-16T02:36:45.384Z,66.19
2022-12-16T02:39:20.881Z,66.59
2022-12-16T02:41:49.563Z,66.77
2022-12-16T02:44:17.368Z,67.25
2022-12-16T02:46:53.439Z,67.00
2022-12-16T02:49:22.268Z,66.11
2022-12-16T02:51:49.861Z,66.24
2022-12-16T02:54:17.825Z,66.34
2022-12-16T02:57:16.904Z,66.04
2022-12-16T03:00:01.730Z,66.42
2022-12-16T03:02:42.215Z,65.81
2022-12-16T03:05:16.042Z,65.61
2022-12-16T03:07:44.327Z,65.69
2022-12-16T03:10:15.413Z,66.36
2022-12-16T03:12:44.440Z,66.08
2022-12-16T03:15:14.010Z,66.21
2022-12-16T03:17:41.323Z,66.08
2022-12-16T03:20:12.385Z,66.55
2022-12-16T03:22:42.270Z,66.48
2022-12-16T03:25:09.540Z,66.71
2022-12-16T03:27:46.644Z,66.26
2022-12-16T03:30:16.605Z,66.92
2022-12-16T03:32:51.501Z,67.29
2022-12-16T03:35:26.000Z,67.24
2022-12-16T03:37:55.490Z,67.05
2022-12-16T03:40:22.907Z,67.08
2022-12-16T03:42:49.950Z,66.79
2022-12-16T03:45:21.239Z,66.91
2022-12-16T03:47:51.763Z,66.34
2022-12-16T03:50:20.247Z,66.31
2022-12-16T03:52:46.916Z,66.54
2022-12-16T03:55:13.564Z,67.12
2022-12-16T03:57:40.229Z,66.21
2022-12-16T04:00:07.831Z,66.04
2022-12-16T04:02:38.756Z,65.96
2022-12-16T04:05:05.828Z,65.65
2022-12-16T04:07:32.462Z,65.57
2022-12-16T04:09:59.613Z,65.84
2022-12-16T04:12:44.933Z,66.25
2022-12-16T04:15:30.323Z,66.81
2022-12-16T04:18:15.580Z,66.60
2022-12-16T04:21:07.073Z,66.66
2022-12-16T04:23:53.842Z,66.80
2022-12-16T04:26:21.057Z,65.94
2022-12-16T04:28:47.789Z,65.43
2022-12-16T04:31:14.505Z,65.28
2022-12-16T04:33:59.807Z,65.18
2022-12-16T04:36:45.063Z,65.93
2022-12-16T04:39:30.346Z,65.50
2022-12-16T04:42:15.697Z,65.61
2022-12-16T04:45:00.974Z,66.18
2022-12-16T04:47:46.407Z,66.17
2022-12-16T04:50:31.761Z,65.83
2022-12-16T04:53:17.063Z,65.20
2022-12-16T04:56:04.391Z,65.54
2022-12-16T04:58:50.186Z,66.88
2022-12-16T05:01:35.504Z,66.69
2022-12-16T05:04:21.239Z,66.42
2022-12-16T05:07:06.399Z,66.69
2022-12-16T05:09:51.751Z,67.04
2022-12-16T05:12:36.993Z,67.32
2022-12-16T05:15:22.254Z,67.68
2022-12-16T05:18:07.607Z,67.75
2022-12-16T05:20:52.944Z,67.80
2022-12-16T05:23:40.692Z,67.90
2022-12-16T05:26:26.010Z,67.47
2022-12-16T05:29:11.259Z,67.23
2022-12-16T05:31:57.144Z,66.84
2022-12-16T05:34:42.451Z,66.72
2022-12-16T05:37:28.126Z,66.98
2022-12-16T05:40:13.669Z,67.32
2022-12-16T05:42:59.053Z,66.59
2022-12-16T05:45:44.507Z,66.70
2022-12-16T05:48:29.750Z,66.64
2022-12-16T05:51:14.975Z,66.94
2022-12-16T05:54:00.271Z,67.26
2022-12-16T05:56:45.577Z,67.56
2022-12-16T05:59:30.983Z,67.24
2022-12-16T06:02:16.226Z,66.57
2022-12-16T06:05:01.674Z,67.01
2022-12-16T06:07:46.855Z,67.13
2022-12-16T06:10:32.225Z,66.96
2022-12-16T06:13:17.428Z,67.04
2022-12-16T06:16:08.905Z,67.58
2022-12-16T06:18:54.756Z,67.14
2022-12-16T06:21:40.559Z,66.64
2022-12-16T06:24:25.817Z,67.32
2022-12-16T06:27:11.125Z,67.61
2022-12-16T06:29:56.371Z,67.57
2022-12-16T06:32:41.740Z,67.62
2022-12-16T06:35:27.089Z,66.79
2022-12-16T06:38:12.522Z,66.43
2022-12-16T06:40:57.650Z,66.50
2022-12-16T06:43:42.936Z,66.55
2022-12-16T06:46:35.848Z,66.39
2022-12-16T06:49:21.186Z,66.33
2022-12-16T06:52:06.602Z,66.71
2022-12-16T06:54:51.971Z,66.17
2022-12-16T06:57:37.363Z,66.97
2022-12-16T07:00:23.046Z,67.18
2022-12-16T07:03:08.572Z,66.74
2022-12-16T07:05:53.926Z,66.89
2022-12-16T07:08:39.170Z,66.39
2022-12-16T07:11:24.537Z,66.43
2022-12-16T07:14:09.766Z,66.12
2022-12-16T07:16:55.158Z,66.37
2022-12-16T07:19:40.650Z,67.44
2022-12-16T07:22:27.008Z,67.76
2022-12-16T07:25:12.422Z,67.48
2022-12-16T07:27:57.656Z,67.18
2022-12-16T07:30:43.148Z,67.28
2022-12-16T07:33:29.523Z,67.43
2022-12-16T07:36:17.693Z,67.76
2022-12-16T07:39:03.016Z,68.54
2022-12-16T07:41:48.033Z,68.76
2022-12-16T07:44:33.339Z,68.54
2022-12-16T07:47:21.768Z,67.86
2022-12-16T07:50:07.014Z,67.43
2022-12-16T07:52:52.325Z,67.78
2022-12-16T07:55:40.777Z,68.25
2022-12-16T07:58:26.143Z,67.63
2022-12-16T08:01:11.632Z,68.01
2022-12-16T08:03:57.248Z,67.83
2022-12-16T08:06:42.610Z,68.90
2022-12-16T08:09:28.020Z,69.05
2022-12-16T08:12:13.308Z,69.12
2022-12-16T08:14:58.762Z,68.32
2022-12-16T08:17:44.317Z,68.78
2022-12-16T08:20:29.785Z,68.85
2022-12-16T08:23:15.216Z,67.95
2022-12-16T08:26:00.671Z,69.09
2022-12-16T08:28:46.173Z,69.71
2022-12-16T08:31:31.799Z,69.43
2022-12-16T08:34:17.224Z,70.23
2022-12-16T08:37:02.492Z,70.38
2022-12-16T08:39:59.161Z,70.13
2022-12-16T08:43:11.098Z,69.66
2022-12-16T08:45:58.932Z,69.32
2022-12-16T08:48:44.372Z,69.98
2022-12-16T08:51:29.738Z,69.49
2022-12-16T08:54:15.167Z,70.11
2022-12-16T08:57:00.985Z,70.04
2022-12-16T08:59:46.251Z,70.11
2022-12-16T09:02:32.911Z,70.13
2022-12-16T09:05:18.435Z,71.08
2022-12-16T09:08:03.833Z,71.87
2022-12-16T09:10:49.425Z,73.42
2022-12-16T09:13:35.829Z,74.16
2022-12-16T09:16:21.827Z,74.26
2022-12-16T09:19:07.143Z,74.67
2022-12-16T09:22:06.584Z,75.30
2022-12-16T09:24:51.754Z,75.81
2022-12-16T09:27:38.149Z,75.53
2022-12-16T09:30:24.936Z,76.22
2022-12-16T09:33:10.469Z,76.87
2022-12-16T09:35:55.617Z,77.04
2022-12-16T09:38:41.022Z,76.65
2022-12-16T09:41:44.792Z,78.07
2022-12-16T09:44:47.347Z,77.18
2022-12-16T09:47:42.135Z,77.57
2022-12-16T09:50:40.865Z,77.78
2022-12-16T09:53:30.625Z,78.07
2022-12-16T09:56:36.304Z,77.59
2022-12-16T09:59:25.240Z,77.17
2022-12-16T10:02:11.231Z,76.88
2022-12-16T10:05:16.271Z,76.49
2022-12-16T10:08:11.973Z,76.62
2022-12-16T10:11:08.766Z,76.05
2022-12-16T10:14:24.156Z,76.19
2022-12-16T10:17:15.662Z,75.45
2022-12-16T10:20:11.498Z,75.05
2022-12-16T10:23:05.993Z,74.82
2022-12-16T10:25:58.508Z,75.15
2022-12-16T10:28:56.918Z,74.15
2022-12-16T10:31:43.973Z,73.59
2022-12-16T10:34:33.575Z,74.47
2022-12-16T10:37:21.300Z,74.80
2022-12-16T10:40:10.153Z,75.34
2022-12-16T10:43:04.060Z,75.72
2022-12-16T10:45:56.990Z,76.01
2022-12-16T10:48:51.399Z,75.64
2022-12-16T10:51:43.793Z,75.33
2022-12-16T10:54:47.063Z,75.54
2022-12-16T10:57:49.464Z,76.24
2022-12-16T11:00:40.928Z,76.53
2022-12-16T11:03:41.319Z,75.18
2022-12-16T11:06:27.137Z,74.74
2022-12-16T11:09:12.439Z,74.31
2022-12-16T11:11:57.834Z,75.32
2022-12-16T11:15:12.707Z,76.15
2022-12-16T11:17:56.297Z,75.22
2022-12-16T11:20:45.055Z,74.71
2022-12-16T11:23:33.768Z,74.12
2022-12-16T11:26:34.468Z,73.23
2022-12-16T11:29:35.631Z,73.73
2022-12-16T11:32:43.753Z,73.63
2022-12-16T11:35:32.068Z,74.05
2022-12-16T11:38:19.601Z,74.62
2022-12-16T11:41:05.914Z,74.59
2022-12-16T11:43:51.752Z,74.63
2022-12-16T11:46:44.286Z,74.04
2022-12-16T11:49:37.378Z,74.32
2022-12-16T11:52:40.213Z,74.55
2022-12-16T11:56:04.892Z,75.20
2022-12-16T11:58:59.775Z,74.29
2022-12-16T12:02:14.901Z,74.31
2022-12-16T12:05:00.301Z,75.38
2022-12-16T12:07:55.697Z,74.73
2022-12-16T12:11:02.829Z,74.57
2022-12-16T12:13:56.699Z,74.83
2022-12-16T12:17:03.911Z,75.15
2022-12-16T12:20:08.088Z,75.08
2022-12-16T12:22:58.134Z,74.91
2022-12-16T12:25:52.034Z,75.22
2022-12-16T12:29:15.464Z,75.23
2022-12-16T12:32:12.388Z,75.20
2022-12-16T12:35:08.325Z,74.71
2022-12-16T12:38:12.985Z,75.46
2022-12-16T12:41:13.599Z,75.90
2022-12-16T12:44:03.876Z,75.86
2022-12-16T12:47:04.689Z,75.29
2022-12-16T12:50:27.541Z,74.46
2022-12-16T12:53:49.623Z,75.35
2022-12-16T12:57:00.006Z,75.15
2022-12-16T12:59:50.978Z,75.75
2022-12-16T13:02:40.486Z,74.57
2022-12-16T13:05:31.055Z,75.19
2022-12-16T13:08:54.920Z,75.64
2022-12-16T13:11:42.780Z,75.34
2022-12-16T13:14:50.104Z,74.13
2022-12-16T13:17:38.023Z,73.99
2022-12-16T13:20:45.085Z,74.15
2022-12-16T13:23:59.026Z,74.64
2022-12-16T13:26:46.216Z,74.52
2022-12-16T13:29:41.738Z,74.26
2022-12-16T13:32:47.275Z,74.64
2022-12-16T13:35:32.703Z,74.36
2022-12-16T13:38:19.127Z,73.37
2022-12-16T13:41:21.230Z,73.34
2022-12-16T13:44:13.143Z,74.12
2022-12-16T13:46:58.402Z,73.06
2022-12-16T13:50:00.001Z,73.60
2022-12-16T13:52:54.060Z,73.97
2022-12-16T13:56:05.699Z,73.64
2022-12-16T13:58:57.350Z,73.66
2022-12-16T14:02:44.440Z,73.58
2022-12-16T14:05:37.012Z,74.07
2022-12-16T14:08:23.987Z,74.21
2022-12-16T14:11:16.940Z,73.97
2022-12-16T14:14:19.863Z,74.60
2022-12-16T14:17:19.285Z,73.87
2022-12-16T14:20:32.475Z,74.37
2022-12-16T14:23:55.232Z,73.74
2022-12-16T14:26:36.231Z,73.86
2022-12-16T14:29:23.047Z,72.60
2022-12-16T14:32:08.294Z,73.47
2022-12-16T14:34:55.893Z,74.30
2022-12-16T14:37:56.572Z,74.10
2022-12-16T14:40:46.335Z,74.00
2022-12-16T14:43:42.819Z,73.46
2022-12-16T14:46:46.773Z,73.94
2022-12-16T14:49:48.782Z,73.11
2022-12-16T14:52:41.526Z,73.27
2022-12-16T14:55:35.461Z,72.97
2022-12-16T14:58:42.107Z,72.71
2022-12-16T15:01:35.204Z,73.41
2022-12-16T15:04:23.788Z,73.09
2022-12-16T15:07:12.072Z,73.00
2022-12-16T15:10:07.519Z,73.12
2022-12-16T15:13:00.476Z,73.26
2022-12-16T15:15:52.912Z,72.08
2022-12-16T15:18:42.650Z,72.68
2022-12-16T15:21:27.996Z,73.05
2022-12-16T15:24:13.467Z,72.50
2022-12-16T15:26:58.735Z,72.52
2022-12-16T15:29:51.852Z,72.34
2022-12-16T15:32:46.533Z,72.87
2022-12-16T15:35:45.343Z,72.17
2022-12-16T15:38:51.823Z,72.24
2022-12-16T15:41:46.115Z,72.15
2022-12-16T15:44:35.373Z,72.33
2022-12-16T15:47:20.746Z,71.14
2022-12-16T15:50:07.242Z,71.92
2022-12-16T15:52:57.710Z,72.81
2022-12-16T15:55:46.928Z,72.49
2022-12-16T15:58:39.894Z,71.88
2022-12-16T16:01:26.213Z,72.82
2022-12-16T16:04:13.746Z,71.90
2022-12-16T16:07:17.243Z,72.88
2022-12-16T16:10:16.170Z,73.13
2022-12-16T16:13:01.620Z,72.51
2022-12-16T16:15:47.091Z,73.50
2022-12-16T16:18:32.681Z,73.07
2022-12-16T16:21:17.875Z,72.74
2022-12-16T16:24:03.200Z,73.29
2022-12-16T16:26:48.431Z,73.12
2022-12-16T16:29:33.921Z,73.39
2022-12-16T16:32:20.328Z,74.29
2022-12-16T16:35:05.489Z,74.03
2022-12-16T16:37:54.035Z,73.85
2022-12-16T16:40:54.626Z,73.49
2022-12-16T16:43:40.076Z,73.54
2022-12-16T16:46:50.707Z,73.43
2022-12-16T16:49:40.885Z,73.16
2022-12-16T16:52:33.150Z,73.25
2022-12-16T16:55:18.411Z,72.97
2022-12-16T16:58:03.907Z,71.71
2022-12-16T17:00:49.195Z,72.06
2022-12-16T17:03:35.115Z,72.53
2022-12-16T17:06:20.849Z,72.43
2022-12-16T17:09:06.179Z,71.85
2022-12-16T17:11:52.306Z,72.38
2022-12-16T17:14:39.972Z,73.48
2022-12-16T17:17:25.763Z,73.81
2022-12-16T17:20:11.089Z,73.86
2022-12-16T17:22:56.540Z,73.70
2022-12-16T17:25:42.465Z,73.96
2022-12-16T17:28:28.267Z,73.97
2022-12-16T17:31:13.550Z,73.57
2022-12-16T17:33:58.866Z,74.03
2022-12-16T17:36:44.327Z,74.00
2022-12-16T17:39:29.742Z,74.25
2022-12-16T17:42:14.904Z,74.11
2022-12-16T17:45:00.236Z,73.09
2022-12-16T17:47:45.581Z,74.02
2022-12-16T17:50:30.968Z,72.84
2022-12-16T17:53:19.671Z,72.99
2022-12-16T17:56:04.950Z,72.29
2022-12-16T17:58:55.845Z,71.80
2022-12-16T18:01:41.721Z,71.81
2022-12-16T18:04:27.377Z,72.56
2022-12-16T18:07:15.470Z,73.25
2022-12-16T18:10:00.712Z,72.19
2022-12-16T18:12:45.858Z,71.84
2022-12-16T18:15:32.699Z,72.11
2022-12-16T18:18:18.213Z,73.31
2022-12-16T18:21:03.377Z,73.83
2022-12-16T18:23:49.239Z,74.12
2022-12-16T18:26:36.055Z,74.01
2022-12-16T18:29:21.884Z,73.59
2022-12-16T18:32:07.725Z,74.08
2022-12-16T18:34:53.028Z,74.39
2022-12-16T18:37:38.172Z,74.49
2022-12-16T18:40:24.069Z,73.94
2022-12-16T18:43:09.424Z,73.62
2022-12-16T18:45:54.884Z,72.81
2022-12-16T18:48:40.169Z,73.03
2022-12-16T18:51:26.634Z,73.51
2022-12-16T18:54:11.906Z,73.48
2022-12-16T18:56:57.269Z,72.44
2022-12-16T18:59:44.378Z,73.63
2022-12-16T19:02:29.783Z,73.58
2022-12-16T19:05:15.274Z,74.18
2022-12-16T19:08:00.728Z,74.09
2022-12-16T19:10:45.993Z,73.81
2022-12-16T19:13:32.422Z,73.54
2022-12-16T19:16:17.689Z,73.97
2022-12-16T19:19:03.185Z,74.63
2022-12-16T19:21:52.407Z,73.54
2022-12-16T19:24:43.318Z,73.73
2022-12-16T19:27:28.590Z,74.39
2022-12-16T19:30:15.249Z,73.57
2022-12-16T19:33:07.091Z,74.09
2022-12-16T19:35:52.509Z,75.11
2022-12-16T19:38:38.954Z,75.63
2022-12-16T19:41:33.547Z,75.88
2022-12-16T19:44:19.727Z,75.80
2022-12-16T19:47:07.059Z,76.18
2022-12-16T19:49:52.320Z,75.94
2022-12-16T19:52:40.090Z,74.24
2022-12-16T19:55:25.995Z,75.24
2022-12-16T19:58:11.984Z,75.95
2022-12-16T20:00:57.578Z,75.55
2022-12-16T20:03:43.090Z,74.50
2022-12-16T20:06:28.757Z,73.56
2022-12-16T20:09:15.041Z,72.86
2022-12-16T20:12:01.357Z,73.22
2022-12-16T20:14:47.494Z,72.69
2022-12-16T20:17:33.311Z,72.23
2022-12-16T20:20:18.459Z,72.91
2022-12-16T20:23:03.805Z,72.11
2022-12-16T20:25:50.410Z,72.91
2022-12-16T20:28:38.639Z,73.60
2022-12-16T20:31:24.112Z,73.63
2022-12-16T20:34:16.399Z,73.00
2022-12-16T20:37:01.783Z,73.30
2022-12-16T20:39:56.440Z,73.47
2022-12-16T20:42:42.658Z,73.84
2022-12-16T20:45:28.105Z,73.79
2022-12-16T20:48:13.428Z,74.33
2022-12-16T20:50:58.882Z,74.82
2022-12-16T20:53:44.244Z,74.95
2022-12-16T20:56:29.851Z,74.87
2022-12-16T20:59:29.800Z,74.54
2022-12-16T21:02:23.242Z,73.98
2022-12-16T21:05:09.143Z,74.60
2022-12-16T21:07:54.717Z,74.84
2022-12-16T21:10:42.203Z,74.91
2022-12-16T21:13:32.347Z,75.56
2022-12-16T21:16:21.743Z,75.94
2022-12-16T21:19:07.471Z,76.85
2022-12-16T21:21:53.539Z,76.52
2022-12-16T21:24:38.713Z,76.86
2022-12-16T21:27:24.125Z,76.52
2022-12-16T21:30:09.942Z,76.87
2022-12-16T21:32:55.320Z,76.45
2022-12-16T21:35:42.408Z,76.76
2022-12-16T21:38:29.034Z,76.78
2022-12-16T21:41:14.413Z,76.76
2022-12-16T21:43:59.953Z,77.04
2022-12-16T21:46:45.479Z,77.02
2022-12-16T21:49:31.020Z,76.89
2022-12-16T21:52:16.153Z,76.05
2022-12-16T21:55:01.515Z,76.84
2022-12-16T21:57:46.881Z,77.06
2022-12-16T22:00:32.630Z,77.68
2022-12-16T22:03:18.103Z,77.77
2022-12-16T22:06:03.674Z,77.67
2022-12-16T22:08:48.861Z,76.54
2022-12-16T22:11:35.355Z,76.80
2022-12-16T22:14:21.070Z,77.43
2022-12-16T22:17:06.532Z,77.96
2022-12-16T22:22:59.982Z,77.99
2022-12-16T22:25:48.397Z,77.64
2022-12-16T22:28:35.411Z,76.11
2022-12-16T22:31:40.533Z,76.03
2022-12-16T22:34:25.733Z,76.64
2022-12-16T22:36:22.085Z,77.92
2022-12-16T22:37:11.215Z,76.09
2022-12-16T22:43:05.725Z,77.26
2022-12-16T22:45:50.834Z,76.31
2022-12-16T22:48:37.315Z,76.64
2022-12-16T22:51:22.515Z,76.95
2022-12-16T22:54:09.517Z,77.72
2022-12-16T22:56:56.414Z,77.86
2022-12-16T22:59:41.896Z,77.67
2022-12-16T23:02:28.236Z,78.03
2022-12-16T23:05:13.992Z,77.59
2022-12-16T23:07:59.374Z,78.02
2022-12-16T23:10:44.712Z,78.30
2022-12-16T23:13:31.010Z,78.42
2022-12-16T23:16:16.520Z,78.64
2022-12-16T23:19:21.749Z,78.87
2022-12-16T23:22:07.168Z,78.57
2022-12-16T23:24:55.100Z,77.36
2022-12-16T23:27:42.392Z,76.81
2022-12-16T23:30:28.136Z,77.35
2022-12-16T23:33:17.926Z,78.47
2022-12-16T23:36:03.140Z,78.46
2022-12-16T23:38:48.935Z,78.50
2022-12-16T23:41:34.197Z,78.48
2022-12-16T23:44:19.681Z,78.37
2022-12-16T23:47:04.816Z,77.71
2022-12-16T23:49:50.293Z,77.49
2022-12-16T23:52:35.531Z,77.35
2022-12-16T23:55:20.948Z,78.11
2022-12-16T23:58:06.286Z,78.19
